WetterOnline ( https://www.wetteronline.de )

Wetter aktuell Taunus

Aktuelles Wetter: Kleiner Feldberg (802m)

6-stündlich | Neueste Meldungen
Ortszeit Temperatur Wetter
Fr, 15.11. 19:00 0.4° C wolkig
Fr, 15.11. 13:00 0.7° C wolkig
Fr, 15.11. 7:00 -0.1° C bedeckt
Fr, 15.11. 1:00 -0.5° C bedeckt
Do, 14.11. 19:00 -0.2° C bedeckt
Do, 14.11. 13:00 1.4° C wolkig
Do, 14.11. 7:00 -0.2° C Nebel
Do, 14.11. 1:00 -0.0° C Nebel
Ortszeit Temperatur Wetter
Fr, 15.11. 21:00 -0.0° C wolkenlos
Fr, 15.11. 20:50 -0.0° C wolkenlos
Fr, 15.11. 20:40 -0.1° C fast wolkenlos
Fr, 15.11. 20:30 -0.0° C leicht bewölkt
Fr, 15.11. 20:20 -0.0° C leicht bewölkt
Fr, 15.11. 20:10 -0.1° C leicht bewölkt
Fr, 15.11. 20:00 0.3° C bewölkt
Fr, 15.11. 19:30 0.4° C wolkig
Fr, 15.11. 19:00 0.4° C wolkig
Fr, 15.11. 18:30 0.2° C wolkig
Fr, 15.11. 18:00 -0.1° C Nebel
Ortszeit Relative Feuchte Sichtweite
Fr, 15.11. 19:00 94% 19 km
Fr, 15.11. 13:00 92% 18 km
Fr, 15.11. 7:00 89% 22 km
Fr, 15.11. 1:00 93% 16 km
Do, 14.11. 19:00 93% 13 km
Do, 14.11. 13:00 78% 35 km
Do, 14.11. 7:00 99% 100 m
Do, 14.11. 1:00 100% 100 m
Ortszeit Relative Feuchte Sichtweite
Fr, 15.11. 21:00 96% 7 km
Fr, 15.11. 20:50 96% -
Fr, 15.11. 20:40 98% -
Fr, 15.11. 20:30 98% 6 km
Fr, 15.11. 20:20 98% -
Fr, 15.11. 20:10 99% -
Fr, 15.11. 20:00 95% 12 km
Fr, 15.11. 19:30 93% 21 km
Fr, 15.11. 19:00 94% 19 km
Fr, 15.11. 18:30 94% 12 km
Fr, 15.11. 18:00 99% 0.3 km
Ortszeit Niederschlagsmenge Niederschlagsart
Fr, 15.11. 19:00 0.1 l/m2 in 12 Std. -
Fr, 15.11. 13:00 0.1 l/m2 in 6 Std. Schnee, Regen
Fr, 15.11. 7:00 0.0 l/m2 in 12 Std. -
Fr, 15.11. 1:00 0.0 l/m2 in 6 Std. -
Do, 14.11. 19:00 0.0 l/m2 in 12 Std. -
Do, 14.11. 13:00 0.0 l/m2 in 6 Std. -
Do, 14.11. 7:00 0.1 l/m2 in 12 Std. -
Do, 14.11. 1:00 0.1 l/m2 in 6 Std. Sprühregen
Ortszeit Niederschlagsmenge Niederschlagsart
Fr, 15.11. 21:00 0.0 l/m2 in 1 Std. -
Fr, 15.11. 20:50 keine Meldung -
Fr, 15.11. 20:40 keine Meldung -
Fr, 15.11. 20:30 0.0 l/m2 in 1 Std. -
Fr, 15.11. 20:20 keine Meldung -
Fr, 15.11. 20:10 keine Meldung -
Fr, 15.11. 20:00 0.0 l/m2 in 1 Std. -
Fr, 15.11. 19:30 0.0 l/m2 in 1 Std. -
Fr, 15.11. 19:00 0.0 l/m2 in 1 Std. -
Fr, 15.11. 18:30 0.0 l/m2 in 1 Std. -
Fr, 15.11. 18:00 0.0 l/m2 in 1 Std. -
Ortszeit Stärke Spitze Richtung
km/h Bft. km/h Grad Sektor
Fr, 15.11. 19:00 13 3 30 240° SW
Fr, 15.11. 13:00 14 3 58 170° S
Fr, 15.11. 7:00 30 5 48 80° O
Fr, 15.11. 1:00 28 4 46 90° O
Do, 14.11. 19:00 22 4 50 100° O
Do, 14.11. 13:00 31 5 54 130° SO
Do, 14.11. 7:00 24 4 39 130° SO
Do, 14.11. 1:00 13 3 30 190° S
Ortszeit Stärke Spitze Richtung
km/h Bft. km/h Grad Sektor
Fr, 15.11. 21:00 7 2 14 160° S
Fr, 15.11. 20:50 7 2 - 160° S
Fr, 15.11. 20:40 7 2 - 150° SO
Fr, 15.11. 20:30 7 2 14 130° SO
Fr, 15.11. 20:20 7 2 - 130° SO
Fr, 15.11. 20:10 11 2 - 130° SO
Fr, 15.11. 20:00 9 2 22 190° S
Fr, 15.11. 19:30 11 2 22 210° SW
Fr, 15.11. 19:00 13 3 24 240° SW
Fr, 15.11. 18:30 13 3 24 210° SW
Fr, 15.11. 18:00 13 3 24 210° SW
Ortszeit Untergrenze Bedeckung Gattung
total tief tief mittel hoch
Fr, 15.11. 19:00 3000 m 6/8 6/8 - - -
Fr, 15.11. 13:00 150 m 6/8 6/8 - - -
Fr, 15.11. 7:00 3900 m 8/8 8/8 - - -
Fr, 15.11. 1:00 3000 m 8/8 8/8 - - -
Do, 14.11. 19:00 6300 m 8/8 8/8 - - -
Do, 14.11. 13:00 6600 m 7/8 7/8 - - -
Do, 14.11. 7:00 <30 m 8/8 0/8 - - -
Do, 14.11. 1:00 <30 m 8/8 0/8 - - -
Ortszeit Bedeckungsgrad in Achtel und Wolkenuntergrenze
Fr, 15.11. 21:00 keine Wolken
Fr, 15.11. 20:50 keine Wolken
Fr, 15.11. 20:40 1(3000m)
Fr, 15.11. 20:30 2(2700m)
Fr, 15.11. 20:20 2(2700m)
Fr, 15.11. 20:10 1(<30m) 4(3000m)
Fr, 15.11. 20:00 7(3000m)
Fr, 15.11. 19:30 6(3300m)
Fr, 15.11. 19:00 5(3000m) 6(3900m)
Fr, 15.11. 18:30 3(<30m) 3(120m) 7(3000m)
Fr, 15.11. 18:00 7(<30m) 7(3600m) 8(4200m)
Ortszeit Stationsdruck (hPa) Tendenz (hPa in 3 Std.)
Fr, 15.11. 19:00 907 + 1,3
Fr, 15.11. 13:00 904 + 2,3
Fr, 15.11. 7:00 900 - 1,8
Fr, 15.11. 1:00 904 - 0,9
Do, 14.11. 19:00 906 - 0,5
Do, 14.11. 13:00 907 0,0
Do, 14.11. 7:00 906 - 0,3
Do, 14.11. 1:00 907 - 0,5
Ortszeit Stationsdruck (hPa) Tendenz (hPa in 3 Std.)
Fr, 15.11. 21:00 908 + 1,3
Fr, 15.11. 20:50 908 keine Meldung
Fr, 15.11. 20:40 908 keine Meldung
Fr, 15.11. 20:30 908 + 1,4
Fr, 15.11. 20:20 908 keine Meldung
Fr, 15.11. 20:10 908 keine Meldung
Fr, 15.11. 20:00 908 + 1,7
Fr, 15.11. 19:30 907 + 0,8
Fr, 15.11. 19:00 907 + 1,3
Fr, 15.11. 18:30 907 + 1,6
Fr, 15.11. 18:00 907 + 1,6
Ortszeit Schneehöhe (cm)
Fr, 15.11. 19:00 0
Fr, 15.11. 13:00 0
Fr, 15.11. 7:00 0
Fr, 15.11. 1:00 0
Do, 14.11. 19:00 0
Do, 14.11. 13:00 0
Do, 14.11. 7:00 0
Do, 14.11. 1:00 0
Ortszeit Schneehöhe (cm)
Fr, 15.11. 21:00 0
Fr, 15.11. 20:50 0
Fr, 15.11. 20:40 0
Fr, 15.11. 20:30 0
Fr, 15.11. 20:20 0
Fr, 15.11. 20:10 0
Fr, 15.11. 20:00 0
Fr, 15.11. 19:30 0
Fr, 15.11. 19:00 0
Fr, 15.11. 18:30 0
Fr, 15.11. 18:00 0
Link zu dieser Seite / Seite empfehlen

Das Wetter in ...